Greenfield Center, New York
Current Conditions -  °F | °C
As of 3:53 PM on Sunday 21 Dec 2014 (Local Time) from KGFL Reporting Station
Overcast Overcast  
Wind Chill: -5°   Ceiling: 3800
Heat Index: -2°   Visibility: 10mi
Dew Point: -6°   Wind: 5mph
Humidity: 75%   Direction: 50°NE
Pressure: 30.32"   Gusts: NA
Location:  43.13°N, 73.85°W
Report Text: KGFL 212053Z AUTO 05004KT 10SM OVC038 M02/M06 A3032 RMK AO2 SLP277 T10171056 56002
Loading
Personal Weather Stations






























Interactive Weather Map New forecast layout! Learn more

10-Day Weather Forecast

Advertisements
Track Severe Weather on mobile